| time (UTC) | temp F | wind direction | speed knots | gust knots | rain 1hr in | rain 24hr in | rain mn in | humidity % | barometer mb |
| 20260505091545 | 43 | 188 | 1.7 | 6.1 | 0.00 | 0.00 | 0.00 | 89 | 1010.7 |
| 20260505090048 | 43 | 241 | 5.2 | 9.6 | 0.00 | 0.00 | 0.00 | 89 | 1010.4 |
| 20260505084535 | 43 | 228 | 6.1 | 12.2 | 0.00 | 0.00 | 0.00 | 89 | 1010.2 |
| 20260505083035 | 43 | 212 | 7.0 | 10.4 | 0.00 | 0.00 | 0.00 | 89 | 1010.0 |
| 20260505081533 | 43 | 239 | 7.0 | 13.9 | 0.00 | 0.00 | 0.00 | 89 | 1009.8 |
| 20260505080030 | 43 | 228 | 6.1 | 10.4 | 0.00 | 0.00 | 0.00 | 88 | 1009.6 |
| 20260505074519 | 44 | 239 | 6.1 | 13.0 | 0.00 | 0.00 | 0.00 | 87 | 1009.4 |
| 20260505073017 | 44 | 225 | 7.0 | 9.6 | 0.00 | 0.00 | 0.00 | 86 | 1009.3 |
| 20260505071523 | 45 | 234 | 6.1 | 13.0 | 0.00 | 0.00 | 0.00 | 86 | 1009.0 |
| 20260505070011 | 44 | 236 | 6.1 | 12.2 | 0.00 | 0.00 | 0.00 | 86 | 1008.8 |
| 20260505064508 | 45 | 235 | 4.3 | 12.2 | 0.00 | 0.00 | 0.00 | 85 | 1008.5 |
| 20260505063003 | 45 | 240 | 5.2 | 13.0 | 0.00 | 0.00 | 0.00 | 85 | 1008.2 |
| 20260505061503 | 46 | 227 | 2.6 | 5.2 | 0.00 | 0.00 | 0.00 | 85 | 1008.2 |
| 20260505060100 | 45 | 224 | 3.5 | 7.0 | 0.00 | 0.00 | 0.00 | 85 | 1007.8 |
| 20260505054614 | 45 | 221 | 1.7 | 7.0 | 0.00 | 0.00 | 0.00 | 83 | 1007.6 |
| 20260505053053 | 45 | 224 | 2.6 | 5.2 | 0.00 | 0.00 | 0.00 | 82 | 1007.3 |
| 20260505051551 | 46 | 228 | 3.5 | 7.0 | 0.00 | 0.00 | 0.00 | 82 | 1007.1 |
| 20260505041540 | 48 | 188 | 4.3 | 10.4 | 0.00 | 0.00 | 0.00 | 81 | 1006.3 |
| 20260505040040 | 48 | 262 | 3.5 | 9.6 | 0.00 | 0.00 | 0.00 | 81 | 1006.1 |
| 20260505034534 | 49 | 181 | 5.2 | 13.9 | 0.00 | 0.00 | 0.00 | 80 | 1005.8 |
| 20260505033040 | 49 | 249 | 7.0 | 16.5 | 0.00 | 0.00 | 0.00 | 80 | 1005.5 |
| 20260505031528 | 49 | 229 | 7.8 | 21.7 | 0.00 | 0.00 | 0.00 | 79 | 1004.9 |
| 20260505030024 | 49 | 230 | 7.8 | 17.4 | 0.00 | 0.00 | 0.00 | 80 | 1004.6 |
| 20260505024547 | 49 | 190 | 6.1 | 12.2 | 0.00 | 0.00 | 0.00 | 79 | 1004.4 |
| 20260505023021 | 48 | 213 | 4.3 | 13.0 | 0.00 | 0.00 | 0.00 | 80 | 1004.3 |
| 20260505021538 | 48 | 199 | 5.2 | 12.2 | 0.00 | 0.00 | 0.00 | 79 | 1004.3 |
| 20260505020019 | 48 | 179 | 2.6 | 9.6 | 0.00 | 0.00 | 0.00 | 78 | 1004.1 |
| 20260505014523 | 48 | 245 | 2.6 | 7.8 | 0.00 | 0.00 | 0.00 | 78 | 1004.1 |
| 20260505013017 | 49 | 196 | 6.1 | 12.2 | 0.00 | 0.00 | 0.00 | 77 | 1004.1 |
| 20260505011518 | 50 | 239 | 8.7 | 15.6 | 0.00 | 0.00 | 0.00 | 77 | 1004.1 |
| 20260505010017 | 50 | 221 | 8.7 | 17.4 | 0.00 | 0.00 | 0.00 | 76 | 1004.1 |
| 20260505004524 | 50 | 230 | 6.1 | 14.8 | 0.00 | 0.00 | 0.00 | 73 | 1004.2 |
| 20260505003014 | 51 | 223 | 11.3 | 20.9 | 0.00 | 0.00 | 0.00 | 70 | 1004.0 |
| 20260505001514 | 51 | 223 | 10.4 | 24.3 | 0.00 | 0.00 | 0.00 | 68 | 1003.8 |
| 20260505000011 | 50 | 200 | 3.5 | 8.7 | 0.00 | 0.00 | 0.00 | 69 | 1003.5 |
| 20260504234509 | 50 | 190 | 1.7 | 7.0 | 0.00 | 0.00 | 0.00 | 71 | 1003.2 |
| 20260504233007 | 49 | 217 | 2.6 | 6.1 | 0.00 | 0.00 | 0.00 | 70 | 1003.0 |
| 20260504231505 | 50 | 201 | 1.7 | 7.0 | 0.00 | 0.00 | 0.00 | 69 | 1002.8 |
| 20260504230005 | 51 | 215 | 3.5 | 13.0 | 0.00 | 0.00 | 0.00 | 66 | 1002.7 |
| 20260504224507 | 51 | 242 | 7.0 | 17.4 | 0.00 | 0.00 | 0.00 | 65 | 1002.7 |
| 20260504223002 | 52 | 239 | 6.1 | 14.8 | 0.00 | 0.00 | 0.00 | 64 | 1002.5 |
| 20260504221608 | 52 | 174 | 7.0 | 16.5 | 0.00 | 0.00 | 0.00 | 64 | 1002.2 |
| 20260504220135 | 52 | 256 | 8.7 | 20.0 | 0.00 | 0.00 | 0.00 | 63 | 1002.1 |
| 20260504214556 | 52 | 235 | 9.6 | 21.7 | 0.00 | 0.00 | 0.00 | 64 | 1002.1 |
| 20260504213113 | 53 | 227 | 9.6 | 20.0 | 0.00 | 0.00 | 0.00 | 63 | 1002.1 |
| 20260504211551 | 53 | 248 | 12.2 | 22.6 | 0.00 | 0.00 | 0.00 | 63 | 1001.9 |
| 20260504210049 | 53 | 232 | 11.3 | 25.2 | 0.00 | 0.00 | 0.00 | 64 | 1001.5 |
| 20260504204600 | 53 | 240 | 13.0 | 26.1 | 0.00 | 0.00 | 0.00 | 63 | 1001.3 |
| 20260504203044 | 53 | 225 | 14.8 | 26.9 | 0.00 | 0.00 | 0.00 | 65 | 1001.0 |
| 20260504201540 | 53 | 234 | 16.5 | 23.5 | 0.00 | 0.00 | 0.00 | 68 | 1000.7 |
| 20260504200043 | 53 | 239 | 13.0 | 25.2 | 0.00 | 0.00 | 0.00 | 72 | 1000.4 |
| 20260504194540 | 52 | 250 | 13.9 | 25.2 | 0.00 | 0.00 | 0.00 | 75 | 1000.1 |
| 20260504193036 | 52 | 254 | 12.2 | 25.2 | 0.00 | 0.00 | 0.00 | 77 | 999.7 |
| 20260504191531 | 51 | 272 | 13.0 | 21.7 | 0.00 | 0.00 | 0.00 | 76 | 999.5 |
| 20260504190035 | 49 | 225 | 13.9 | 24.3 | 0.00 | 0.00 | 0.00 | 79 | 999.4 |
| 20260504184533 | 49 | 252 | 14.8 | 23.5 | 0.00 | 0.00 | 0.00 | 80 | 999.1 |
| 20260504183022 | 48 | 246 | 13.0 | 20.0 | 0.00 | 0.00 | 0.00 | 82 | 998.8 |
| 20260504181518 | 46 | 234 | 16.5 | 24.3 | 0.00 | 0.00 | 0.00 | 84 | 998.7 |
| 20260504180017 | 46 | 248 | 11.3 | 22.6 | 0.00 | 0.00 | 0.00 | 85 | 998.6 |
| 20260504174515 | 46 | 235 | 13.0 | 19.1 | 0.00 | 0.00 | 0.00 | 86 | 998.4 |
| 20260504173013 | 46 | 221 | 10.4 | 23.5 | 0.00 | 0.00 | 0.00 | 88 | 998.1 |
| 20260504171511 | 44 | 248 | 13.9 | 23.5 | 0.00 | 0.00 | 0.00 | 88 | 997.8 |
| 20260504160106 | 44 | 231 | 14.8 | 30.4 | 0.00 | 0.00 | 0.00 | 87 | 996.1 |